sensor_id;sensor_type;location;lat;lon;timestamp;pressure;altitude;pressure_sealevel;temperature
42673;BMP280;28284;46.514;30.724;2023-08-17T00:01:23;101095.59;;;25.81
42673;BMP280;28284;46.514;30.724;2023-08-17T00:03:48;101095.75;;;25.78
42673;BMP280;28284;46.514;30.724;2023-08-17T00:06:16;101092.69;;;25.76
42673;BMP280;28284;46.514;30.724;2023-08-17T00:08:42;101091.63;;;25.73
42673;BMP280;28284;46.514;30.724;2023-08-17T00:11:07;101089.03;;;25.70
42673;BMP280;28284;46.514;30.724;2023-08-17T00:13:33;101088.16;;;25.64
42673;BMP280;28284;46.514;30.724;2023-08-17T00:15:58;101089.06;;;25.61
42673;BMP280;28284;46.514;30.724;2023-08-17T00:18:23;101086.94;;;25.56
42673;BMP280;28284;46.514;30.724;2023-08-17T00:20:49;101079.28;;;25.51
42673;BMP280;28284;46.514;30.724;2023-08-17T00:23:14;101083.47;;;25.47
42673;BMP280;28284;46.514;30.724;2023-08-17T00:25:40;101078.88;;;25.44
42673;BMP280;28284;46.514;30.724;2023-08-17T00:28:08;101087.34;;;25.40
42673;BMP280;28284;46.514;30.724;2023-08-17T00:30:34;101085.19;;;25.35
42673;BMP280;28284;46.514;30.724;2023-08-17T00:33:01;101087.41;;;25.31
42673;BMP280;28284;46.514;30.724;2023-08-17T00:35:27;101096.81;;;25.25
42673;BMP280;28284;46.514;30.724;2023-08-17T00:37:52;101097.44;;;25.20
42673;BMP280;28284;46.514;30.724;2023-08-17T00:40:18;101099.03;;;25.12
42673;BMP280;28284;46.514;30.724;2023-08-17T00:42:46;101097.81;;;25.04
42673;BMP280;28284;46.514;30.724;2023-08-17T00:45:11;101102.63;;;24.95
42673;BMP280;28284;46.514;30.724;2023-08-17T00:47:37;101095.84;;;24.87
42673;BMP280;28284;46.514;30.724;2023-08-17T00:50:02;101099.72;;;24.80
42673;BMP280;28284;46.514;30.724;2023-08-17T00:52:28;101094.81;;;24.75
42673;BMP280;28284;46.514;30.724;2023-08-17T00:54:54;101094.66;;;24.70
42673;BMP280;28284;46.514;30.724;2023-08-17T00:57:20;101088.22;;;24.64
42673;BMP280;28284;46.514;30.724;2023-08-17T00:59:46;101083.75;;;24.58
42673;BMP280;28284;46.514;30.724;2023-08-17T01:02:11;101092.22;;;24.54
42673;BMP280;28284;46.514;30.724;2023-08-17T01:04:36;101084.06;;;24.51
42673;BMP280;28284;46.514;30.724;2023-08-17T01:07:02;101088.53;;;24.48
42673;BMP280;28284;46.514;30.724;2023-08-17T01:09:27;101082.38;;;24.44
42673;BMP280;28284;46.514;30.724;2023-08-17T01:11:58;101097.44;;;24.43
42673;BMP280;28284;46.514;30.724;2023-08-17T01:16:53;101090.06;;;24.40
42673;BMP280;28284;46.514;30.724;2023-08-17T01:19:24;101081.47;;;24.38
42673;BMP280;28284;46.514;30.724;2023-08-17T01:21:50;101088.22;;;24.37
42673;BMP280;28284;46.514;30.724;2023-08-17T01:24:18;101073.63;;;24.37
42673;BMP280;28284;46.514;30.724;2023-08-17T01:26:43;101068.97;;;24.34
42673;BMP280;28284;46.514;30.724;2023-08-17T01:29:09;101070.19;;;24.33
42673;BMP280;28284;46.514;30.724;2023-08-17T01:31:36;101076.69;;;24.30
42673;BMP280;28284;46.514;30.724;2023-08-17T01:34:06;101070.84;;;24.28
42673;BMP280;28284;46.514;30.724;2023-08-17T01:38:58;101070.53;;;24.26
42673;BMP280;28284;46.514;30.724;2023-08-17T01:41:24;101063.94;;;24.23
42673;BMP280;28284;46.514;30.724;2023-08-17T01:43:51;101062.09;;;24.20
42673;BMP280;28284;46.514;30.724;2023-08-17T01:46:19;101065.78;;;24.17
42673;BMP280;28284;46.514;30.724;2023-08-17T01:48:44;101058.84;;;24.13
42673;BMP280;28284;46.514;30.724;2023-08-17T01:51:10;101051.19;;;24.08
42673;BMP280;28284;46.514;30.724;2023-08-17T01:53:36;101049.78;;;24.04
42673;BMP280;28284;46.514;30.724;2023-08-17T01:56:01;101052.22;;;24.02
42673;BMP280;28284;46.514;30.724;2023-08-17T01:58:26;101056.38;;;23.97
42673;BMP280;28284;46.514;30.724;2023-08-17T02:00:52;101042.69;;;23.94
42673;BMP280;28284;46.514;30.724;2023-08-17T02:03:17;101055.91;;;23.90
42673;BMP280;28284;46.514;30.724;2023-08-17T02:05:46;101050.09;;;23.88
42673;BMP280;28284;46.514;30.724;2023-08-17T02:08:11;101040.66;;;23.85
42673;BMP280;28284;46.514;30.724;2023-08-17T02:10:37;101046.69;;;23.84
42673;BMP280;28284;46.514;30.724;2023-08-17T02:13:02;101038.06;;;23.82
42673;BMP280;28284;46.514;30.724;2023-08-17T02:15:27;101041.31;;;23.80
42673;BMP280;28284;46.514;30.724;2023-08-17T02:17:53;101043.75;;;23.78
42673;BMP280;28284;46.514;30.724;2023-08-17T02:20:18;101040.34;;;23.74
42673;BMP280;28284;46.514;30.724;2023-08-17T02:22:44;101036.50;;;23.72
42673;BMP280;28284;46.514;30.724;2023-08-17T02:25:09;101031.88;;;23.69
42673;BMP280;28284;46.514;30.724;2023-08-17T02:27:34;101035.56;;;23.66
42673;BMP280;28284;46.514;30.724;2023-08-17T02:30:00;101031.72;;;23.63
42673;BMP280;28284;46.514;30.724;2023-08-17T02:32:25;101047.69;;;23.59
42673;BMP280;28284;46.514;30.724;2023-08-17T02:34:53;101039.06;;;23.57
42673;BMP280;28284;46.514;30.724;2023-08-17T02:37:19;101038.78;;;23.55
42673;BMP280;28284;46.514;30.724;2023-08-17T02:39:44;101032.50;;;23.55
42673;BMP280;28284;46.514;30.724;2023-08-17T02:42:09;101031.69;;;23.54
42673;BMP280;28284;46.514;30.724;2023-08-17T02:44:34;101035.25;;;23.55
42673;BMP280;28284;46.514;30.724;2023-08-17T02:47:00;101035.25;;;23.55
42673;BMP280;28284;46.514;30.724;2023-08-17T02:49:26;101039.56;;;23.56
42673;BMP280;28284;46.514;30.724;2023-08-17T02:51:52;101042.31;;;23.56
42673;BMP280;28284;46.514;30.724;2023-08-17T02:54:17;101043.84;;;23.57
42673;BMP280;28284;46.514;30.724;2023-08-17T02:56:43;101048.16;;;23.58
42673;BMP280;28284;46.514;30.724;2023-08-17T02:59:08;101042.16;;;23.59
42673;BMP280;28284;46.514;30.724;2023-08-17T03:01:33;101052.63;;;23.64
42673;BMP280;28284;46.514;30.724;2023-08-17T03:03:59;101050.34;;;23.72
42673;BMP280;28284;46.514;30.724;2023-08-17T03:06:25;101052.84;;;23.88
42673;BMP280;28284;46.514;30.724;2023-08-17T03:08:50;101045.31;;;24.06
42673;BMP280;28284;46.514;30.724;2023-08-17T03:11:17;101054.84;;;24.32
42673;BMP280;28284;46.514;30.724;2023-08-17T03:13:43;101050.34;;;24.61
42673;BMP280;28284;46.514;30.724;2023-08-17T03:16:08;101053.78;;;24.97
42673;BMP280;28284;46.514;30.724;2023-08-17T03:18:33;101054.66;;;25.44
42673;BMP280;28284;46.514;30.724;2023-08-17T03:20:59;101056.44;;;25.94
42673;BMP280;28284;46.514;30.724;2023-08-17T03:23:24;101050.53;;;26.38
42673;BMP280;28284;46.514;30.724;2023-08-17T03:25:53;101063.63;;;26.95
42673;BMP280;28284;46.514;30.724;2023-08-17T03:28:18;101058.97;;;27.61
42673;BMP280;28284;46.514;30.724;2023-08-17T03:30:44;101072.78;;;28.15
42673;BMP280;28284;46.514;30.724;2023-08-17T03:33:09;101072.44;;;28.58
42673;BMP280;28284;46.514;30.724;2023-08-17T03:35:35;101074.63;;;29.10
42673;BMP280;28284;46.514;30.724;2023-08-17T03:38:01;101076.41;;;29.60
42673;BMP280;28284;46.514;30.724;2023-08-17T03:40:26;101073.25;;;30.26
42673;BMP280;28284;46.514;30.724;2023-08-17T03:42:52;101075.78;;;30.84
42673;BMP280;28284;46.514;30.724;2023-08-17T03:45:20;101078.97;;;31.37
42673;BMP280;28284;46.514;30.724;2023-08-17T03:47:45;101084.75;;;31.96
42673;BMP280;28284;46.514;30.724;2023-08-17T03:50:10;101080.75;;;32.49
42673;BMP280;28284;46.514;30.724;2023-08-17T03:52:36;101089.75;;;32.95
42673;BMP280;28284;46.514;30.724;2023-08-17T03:55:01;101097.84;;;33.41
42673;BMP280;28284;46.514;30.724;2023-08-17T03:57:27;101100.91;;;33.80
42673;BMP280;28284;46.514;30.724;2023-08-17T03:59:52;101097.41;;;33.92
42673;BMP280;28284;46.514;30.724;2023-08-17T04:02:20;101101.28;;;34.20
42673;BMP280;28284;46.514;30.724;2023-08-17T04:04:45;101099.84;;;34.45
42673;BMP280;28284;46.514;30.724;2023-08-17T04:07:11;101095.31;;;34.93
42673;BMP280;28284;46.514;30.724;2023-08-17T04:09:36;101099.22;;;35.49
42673;BMP280;28284;46.514;30.724;2023-08-17T04:12:01;101099.78;;;35.81
42673;BMP280;28284;46.514;30.724;2023-08-17T04:14:29;101099.97;;;36.23
42673;BMP280;28284;46.514;30.724;2023-08-17T04:16:56;101105.31;;;36.54
42673;BMP280;28284;46.514;30.724;2023-08-17T04:19:23;101112.44;;;36.83
42673;BMP280;28284;46.514;30.724;2023-08-17T04:21:48;101110.06;;;37.29
42673;BMP280;28284;46.514;30.724;2023-08-17T04:24:15;101114.81;;;37.42
42673;BMP280;28284;46.514;30.724;2023-08-17T04:26:41;101119.78;;;37.86
42673;BMP280;28284;46.514;30.724;2023-08-17T04:29:07;101120.56;;;38.16
42673;BMP280;28284;46.514;30.724;2023-08-17T04:31:32;101120.69;;;38.62
42673;BMP280;28284;46.514;30.724;2023-08-17T04:33:57;101121.88;;;39.06
42673;BMP280;28284;46.514;30.724;2023-08-17T04:36:23;101128.75;;;39.58
42673;BMP280;28284;46.514;30.724;2023-08-17T04:38:48;101134.84;;;39.79
42673;BMP280;28284;46.514;30.724;2023-08-17T04:41:13;101136.81;;;40.18
42673;BMP280;28284;46.514;30.724;2023-08-17T04:43:39;101135.81;;;40.39
42673;BMP280;28284;46.514;30.724;2023-08-17T04:46:05;101133.09;;;40.66
42673;BMP280;28284;46.514;30.724;2023-08-17T04:48:31;101125.50;;;40.94
42673;BMP280;28284;46.514;30.724;2023-08-17T04:50:56;101123.03;;;41.24
42673;BMP280;28284;46.514;30.724;2023-08-17T04:53:21;101122.53;;;41.45
42673;BMP280;28284;46.514;30.724;2023-08-17T04:55:48;101126.97;;;41.74
42673;BMP280;28284;46.514;30.724;2023-08-17T04:58:13;101132.31;;;41.96
42673;BMP280;28284;46.514;30.724;2023-08-17T05:00:39;101132.66;;;42.28
42673;BMP280;28284;46.514;30.724;2023-08-17T05:03:04;101142.84;;;42.59
42673;BMP280;28284;46.514;30.724;2023-08-17T05:05:29;101144.75;;;42.94
42673;BMP280;28284;46.514;30.724;2023-08-17T05:07:55;101145.13;;;43.28
42673;BMP280;28284;46.514;30.724;2023-08-17T05:10:20;101141.16;;;43.42
42673;BMP280;28284;46.514;30.724;2023-08-17T05:12:49;101141.19;;;43.63
42673;BMP280;28284;46.514;30.724;2023-08-17T05:15:14;101147.13;;;43.56
42673;BMP280;28284;46.514;30.724;2023-08-17T05:17:39;101135.16;;;43.69
42673;BMP280;28284;46.514;30.724;2023-08-17T05:20:05;101151.06;;;43.81
42673;BMP280;28284;46.514;30.724;2023-08-17T05:22:30;101139.63;;;43.81
42673;BMP280;28284;46.514;30.724;2023-08-17T05:24:56;101144.09;;;43.84
42673;BMP280;28284;46.514;30.724;2023-08-17T05:27:21;101134.81;;;43.53
42673;BMP280;28284;46.514;30.724;2023-08-17T05:29:47;101132.97;;;43.58
42673;BMP280;28284;46.514;30.724;2023-08-17T05:32:12;101136.63;;;43.79
42673;BMP280;28284;46.514;30.724;2023-08-17T05:34:37;101134.03;;;44.04
42673;BMP280;28284;46.514;30.724;2023-08-17T05:37:03;101137.13;;;44.17
42673;BMP280;28284;46.514;30.724;2023-08-17T05:39:28;101124.38;;;44.29
42673;BMP280;28284;46.514;30.724;2023-08-17T05:41:53;101132.34;;;44.10
42673;BMP280;28284;46.514;30.724;2023-08-17T05:44:19;101128.19;;;44.02
42673;BMP280;28284;46.514;30.724;2023-08-17T05:46:44;101137.56;;;43.33
42673;BMP280;28284;46.514;30.724;2023-08-17T05:49:10;101126.38;;;42.48
42673;BMP280;28284;46.514;30.724;2023-08-17T05:51:36;101127.25;;;42.41
42673;BMP280;28284;46.514;30.724;2023-08-17T05:54:01;101130.56;;;42.28
42673;BMP280;28284;46.514;30.724;2023-08-17T05:56:27;101135.97;;;42.34
42673;BMP280;28284;46.514;30.724;2023-08-17T05:58:53;101135.97;;;42.81
42673;BMP280;28284;46.514;30.724;2023-08-17T06:01:19;101145.84;;;43.38
42673;BMP280;28284;46.514;30.724;2023-08-17T06:03:44;101137.13;;;42.87
42673;BMP280;28284;46.514;30.724;2023-08-17T06:06:10;101140.16;;;42.70
42673;BMP280;28284;46.514;30.724;2023-08-17T06:08:36;101144.50;;;42.43
42673;BMP280;28284;46.514;30.724;2023-08-17T06:11:01;101148.84;;;42.72
42673;BMP280;28284;46.514;30.724;2023-08-17T06:13:27;101148.50;;;43.15
42673;BMP280;28284;46.514;30.724;2023-08-17T06:15:52;101148.38;;;43.73
42673;BMP280;28284;46.514;30.724;2023-08-17T06:18:17;101153.72;;;44.30
42673;BMP280;28284;46.514;30.724;2023-08-17T06:20:42;101152.28;;;44.83
42673;BMP280;28284;46.514;30.724;2023-08-17T06:23:08;101156.00;;;45.18
42673;BMP280;28284;46.514;30.724;2023-08-17T06:25:36;101159.59;;;45.52
42673;BMP280;28284;46.514;30.724;2023-08-17T06:28:01;101152.31;;;45.74
42673;BMP280;28284;46.514;30.724;2023-08-17T06:30:27;101149.63;;;46.12
42673;BMP280;28284;46.514;30.724;2023-08-17T06:32:52;101158.34;;;46.39
42673;BMP280;28284;46.514;30.724;2023-08-17T06:35:18;101152.06;;;46.53
42673;BMP280;28284;46.514;30.724;2023-08-17T06:37:43;101158.63;;;46.43
42673;BMP280;28284;46.514;30.724;2023-08-17T06:40:08;101152.63;;;46.39
42673;BMP280;28284;46.514;30.724;2023-08-17T06:42:34;101150.16;;;46.33
42673;BMP280;28284;46.514;30.724;2023-08-17T06:44:59;101149.81;;;46.52
42673;BMP280;28284;46.514;30.724;2023-08-17T06:47:25;101151.88;;;46.38
42673;BMP280;28284;46.514;30.724;2023-08-17T06:49:50;101147.03;;;46.05
42673;BMP280;28284;46.514;30.724;2023-08-17T06:52:15;101151.03;;;46.00
42673;BMP280;28284;46.514;30.724;2023-08-17T06:54:41;101144.28;;;46.07
42673;BMP280;28284;46.514;30.724;2023-08-17T06:57:06;101141.66;;;46.11
42673;BMP280;28284;46.514;30.724;2023-08-17T06:59:31;101143.13;;;45.08
42673;BMP280;28284;46.514;30.724;2023-08-17T07:01:58;101139.19;;;44.37
42673;BMP280;28284;46.514;30.724;2023-08-17T07:04:27;101139.88;;;44.47
42673;BMP280;28284;46.514;30.724;2023-08-17T07:06:52;101141.56;;;44.61
42673;BMP280;28284;46.514;30.724;2023-08-17T07:09:17;101140.44;;;44.66
42673;BMP280;28284;46.514;30.724;2023-08-17T07:11:43;101136.03;;;44.97
42673;BMP280;28284;46.514;30.724;2023-08-17T07:14:09;101139.41;;;45.16
42673;BMP280;28284;46.514;30.724;2023-08-17T07:16:34;101145.34;;;45.09
42673;BMP280;28284;46.514;30.724;2023-08-17T07:19:05;101137.53;;;44.55
42673;BMP280;28284;46.514;30.724;2023-08-17T07:21:31;101134.59;;;44.11
42673;BMP280;28284;46.514;30.724;2023-08-17T07:23:56;101123.50;;;43.65
42673;BMP280;28284;46.514;30.724;2023-08-17T07:26:22;101128.91;;;43.31
42673;BMP280;28284;46.514;30.724;2023-08-17T07:28:48;101127.84;;;43.35
42673;BMP280;28284;46.514;30.724;2023-08-17T07:31:13;101132.75;;;43.44
42673;BMP280;28284;46.514;30.724;2023-08-17T07:33:39;101130.91;;;43.09
42673;BMP280;28284;46.514;30.724;2023-08-17T07:36:04;101131.84;;;42.93
42673;BMP280;28284;46.514;30.724;2023-08-17T07:38:30;101125.97;;;43.00
42673;BMP280;28284;46.514;30.724;2023-08-17T07:40:58;101126.66;;;43.20
42673;BMP280;28284;46.514;30.724;2023-08-17T07:43:23;101135.75;;;43.07
42673;BMP280;28284;46.514;30.724;2023-08-17T07:45:54;101127.41;;;42.34
42673;BMP280;28284;46.514;30.724;2023-08-17T07:48:19;101114.91;;;41.92
42673;BMP280;28284;46.514;30.724;2023-08-17T07:50:47;101114.81;;;41.28
42673;BMP280;28284;46.514;30.724;2023-08-17T07:53:13;101114.16;;;40.61
42673;BMP280;28284;46.514;30.724;2023-08-17T07:55:38;101101.00;;;39.98
42673;BMP280;28284;46.514;30.724;2023-08-17T07:58:04;101112.78;;;39.70
42673;BMP280;28284;46.514;30.724;2023-08-17T08:00:31;101098.72;;;39.48
42673;BMP280;28284;46.514;30.724;2023-08-17T08:02:57;101111.81;;;39.44
42673;BMP280;28284;46.514;30.724;2023-08-17T08:05:22;101104.00;;;39.27
42673;BMP280;28284;46.514;30.724;2023-08-17T08:07:47;101101.53;;;39.24
42673;BMP280;28284;46.514;30.724;2023-08-17T08:10:13;101104.38;;;39.24
42673;BMP280;28284;46.514;30.724;2023-08-17T08:12:38;101089.34;;;39.07
42673;BMP280;28284;46.514;30.724;2023-08-17T08:15:03;101095.03;;;39.38
42673;BMP280;28284;46.514;30.724;2023-08-17T08:17:29;101098.13;;;39.81
42673;BMP280;28284;46.514;30.724;2023-08-17T08:19:55;101096.09;;;39.98
42673;BMP280;28284;46.514;30.724;2023-08-17T08:22:20;101105.78;;;40.12
42673;BMP280;28284;46.514;30.724;2023-08-17T08:24:45;101094.38;;;40.20
42673;BMP280;28284;46.514;30.724;2023-08-17T08:27:11;101094.19;;;40.34
42673;BMP280;28284;46.514;30.724;2023-08-17T08:29:38;101095.31;;;40.39
42673;BMP280;28284;46.514;30.724;2023-08-17T08:32:05;101091.97;;;40.50
42673;BMP280;28284;46.514;30.724;2023-08-17T08:34:50;101096.13;;;40.49
42673;BMP280;28284;46.514;30.724;2023-08-17T08:37:15;101095.63;;;40.26
42673;BMP280;28284;46.514;30.724;2023-08-17T08:39:50;101098.72;;;40.21
42673;BMP280;28284;46.514;30.724;2023-08-17T08:42:16;101099.94;;;40.10
42673;BMP280;28284;46.514;30.724;2023-08-17T08:44:42;101097.81;;;39.94
42673;BMP280;28284;46.514;30.724;2023-08-17T08:47:07;101091.34;;;39.77
42673;BMP280;28284;46.514;30.724;2023-08-17T08:49:33;101097.06;;;39.69
42673;BMP280;28284;46.514;30.724;2023-08-17T08:52:01;101095.97;;;39.65
42673;BMP280;28284;46.514;30.724;2023-08-17T08:54:27;101099.22;;;39.61
42673;BMP280;28284;46.514;30.724;2023-08-17T08:56:59;101097.72;;;39.60
42673;BMP280;28284;46.514;30.724;2023-08-17T08:59:26;101095.56;;;39.44
42673;BMP280;28284;46.514;30.724;2023-08-17T09:01:52;101096.91;;;39.36
42673;BMP280;28284;46.514;30.724;2023-08-17T09:04:17;101089.31;;;39.14
42673;BMP280;28284;46.514;30.724;2023-08-17T09:06:43;101103.00;;;39.01
42673;BMP280;28284;46.514;30.724;2023-08-17T09:09:08;101089.81;;;38.88
42673;BMP280;28284;46.514;30.724;2023-08-17T09:11:35;101098.13;;;38.86
42673;BMP280;28284;46.514;30.724;2023-08-17T09:14:01;101084.94;;;38.81
42673;BMP280;28284;46.514;30.724;2023-08-17T09:16:27;101090.06;;;38.76
42673;BMP280;28284;46.514;30.724;2023-08-17T09:18:52;101091.94;;;38.80
42673;BMP280;28284;46.514;30.724;2023-08-17T09:21:21;101094.38;;;38.84
42673;BMP280;28284;46.514;30.724;2023-08-17T09:23:51;101050.84;;;38.50
42673;BMP280;28284;46.514;30.724;2023-08-17T09:26:17;101092.19;;;38.68
42673;BMP280;28284;46.514;30.724;2023-08-17T09:28:44;101091.63;;;38.47
42673;BMP280;28284;46.514;30.724;2023-08-17T09:31:09;101085.44;;;38.34
42673;BMP280;28284;46.514;30.724;2023-08-17T09:33:34;101084.69;;;38.18
42673;BMP280;28284;46.514;30.724;2023-08-17T09:36:00;101079.06;;;38.03
42673;BMP280;28284;46.514;30.724;2023-08-17T09:38:26;101076.81;;;37.95
42673;BMP280;28284;46.514;30.724;2023-08-17T09:40:52;101076.38;;;37.76
42673;BMP280;28284;46.514;30.724;2023-08-17T09:43:17;101068.44;;;37.52
42673;BMP280;28284;46.514;30.724;2023-08-17T09:45:43;101081.25;;;37.46
42673;BMP280;28284;46.514;30.724;2023-08-17T09:48:16;101069.34;;;37.32
42673;BMP280;28284;46.514;30.724;2023-08-17T09:50:42;101068.38;;;37.22
42673;BMP280;28284;46.514;30.724;2023-08-17T09:53:11;101070.41;;;37.15
42673;BMP280;28284;46.514;30.724;2023-08-17T09:55:37;101062.59;;;36.93
42673;BMP280;28284;46.514;30.724;2023-08-17T09:58:03;101062.88;;;36.75
42673;BMP280;28284;46.514;30.724;2023-08-17T10:00:37;101052.22;;;36.53
42673;BMP280;28284;46.514;30.724;2023-08-17T10:03:03;101061.03;;;36.22
42673;BMP280;28284;46.514;30.724;2023-08-17T10:05:30;101045.44;;;36.00
42673;BMP280;28284;46.514;30.724;2023-08-17T10:07:57;101060.69;;;35.85
42673;BMP280;28284;46.514;30.724;2023-08-17T10:10:26;101053.81;;;35.73
42673;BMP280;28284;46.514;30.724;2023-08-17T10:15:18;101056.06;;;35.54
42673;BMP280;28284;46.514;30.724;2023-08-17T10:20:36;101054.81;;;35.09
42673;BMP280;28284;46.514;30.724;2023-08-17T10:23:14;101049.38;;;34.98
42673;BMP280;28284;46.514;30.724;2023-08-17T10:25:43;101046.81;;;34.87
42673;BMP280;28284;46.514;30.724;2023-08-17T10:28:09;101056.78;;;34.75
42673;BMP280;28284;46.514;30.724;2023-08-17T10:30:35;101048.50;;;34.65
42673;BMP280;28284;46.514;30.724;2023-08-17T10:33:01;101049.75;;;34.56
42673;BMP280;28284;46.514;30.724;2023-08-17T10:35:28;101049.19;;;34.45
42673;BMP280;28284;46.514;30.724;2023-08-17T10:37:54;101042.63;;;34.24
42673;BMP280;28284;46.514;30.724;2023-08-17T10:40:33;101034.91;;;34.12
42673;BMP280;28284;46.514;30.724;2023-08-17T10:42:59;101044.84;;;34.00
42673;BMP280;28284;46.514;30.724;2023-08-17T10:47:50;101039.19;;;33.87
42673;BMP280;28284;46.514;30.724;2023-08-17T10:50:24;101037.31;;;33.77
42673;BMP280;28284;46.514;30.724;2023-08-17T10:52:54;101032.75;;;33.74
42673;BMP280;28284;46.514;30.724;2023-08-17T10:55:35;101046.88;;;33.68
42673;BMP280;28284;46.514;30.724;2023-08-17T10:58:03;101044.91;;;33.63
42673;BMP280;28284;46.514;30.724;2023-08-17T11:00:36;101031.78;;;33.53
42673;BMP280;28284;46.514;30.724;2023-08-17T11:05:43;101038.84;;;33.41
42673;BMP280;28284;46.514;30.724;2023-08-17T11:11:06;101028.53;;;33.31
42673;BMP280;28284;46.514;30.724;2023-08-17T11:13:35;101034.47;;;33.27
42673;BMP280;28284;46.514;30.724;2023-08-17T11:16:01;101031.44;;;33.25
42673;BMP280;28284;46.514;30.724;2023-08-17T11:18:28;101027.31;;;33.26
42673;BMP280;28284;46.514;30.724;2023-08-17T11:20:54;101029.38;;;33.26
42673;BMP280;28284;46.514;30.724;2023-08-17T11:23:19;101024.06;;;33.22
42673;BMP280;28284;46.514;30.724;2023-08-17T11:25:45;101032.53;;;33.17
42673;BMP280;28284;46.514;30.724;2023-08-17T11:28:11;101026.97;;;33.11
42673;BMP280;28284;46.514;30.724;2023-08-17T11:30:38;101021.69;;;33.08
42673;BMP280;28284;46.514;30.724;2023-08-17T11:33:04;101014.25;;;33.10
42673;BMP280;28284;46.514;30.724;2023-08-17T11:35:29;101025.19;;;33.14
42673;BMP280;28284;46.514;30.724;2023-08-17T11:37:55;101026.25;;;33.11
42673;BMP280;28284;46.514;30.724;2023-08-17T11:40:20;101024.97;;;33.12
42673;BMP280;28284;46.514;30.724;2023-08-17T11:42:46;101026.75;;;33.09
42673;BMP280;28284;46.514;30.724;2023-08-17T11:45:11;101019.34;;;33.12
42673;BMP280;28284;46.514;30.724;2023-08-17T11:47:40;101019.13;;;33.10
42673;BMP280;28284;46.514;30.724;2023-08-17T11:50:07;100958.28;;;32.76
42673;BMP280;28284;46.514;30.724;2023-08-17T11:52:33;101017.50;;;33.14
42673;BMP280;28284;46.514;30.724;2023-08-17T11:55:01;101010.31;;;33.19
42673;BMP280;28284;46.514;30.724;2023-08-17T11:57:26;101014.84;;;33.22
42673;BMP280;28284;46.514;30.724;2023-08-17T11:59:55;101003.84;;;33.24
42673;BMP280;28284;46.514;30.724;2023-08-17T12:02:21;101010.78;;;33.23
42673;BMP280;28284;46.514;30.724;2023-08-17T12:04:47;101010.78;;;33.23
42673;BMP280;28284;46.514;30.724;2023-08-17T12:07:12;101009.72;;;33.26
42673;BMP280;28284;46.514;30.724;2023-08-17T12:09:38;101006.16;;;33.25
42673;BMP280;28284;46.514;30.724;2023-08-17T12:12:03;100996.41;;;33.26
42673;BMP280;28284;46.514;30.724;2023-08-17T12:14:28;101007.97;;;33.23
42673;BMP280;28284;46.514;30.724;2023-08-17T12:16:54;101000.59;;;33.20
42673;BMP280;28284;46.514;30.724;2023-08-17T12:19:20;101005.16;;;33.23
42673;BMP280;28284;46.514;30.724;2023-08-17T12:21:45;100999.22;;;33.26
42673;BMP280;28284;46.514;30.724;2023-08-17T12:24:12;100999.75;;;33.25
42673;BMP280;28284;46.514;30.724;2023-08-17T12:26:42;101003.34;;;33.25
42673;BMP280;28284;46.514;30.724;2023-08-17T12:29:08;101000.75;;;33.27
42673;BMP280;28284;46.514;30.724;2023-08-17T12:31:34;100992.34;;;33.27
42673;BMP280;28284;46.514;30.724;2023-08-17T12:33:59;100999.97;;;33.27
42673;BMP280;28284;46.514;30.724;2023-08-17T12:36:24;100994.34;;;33.27
42673;BMP280;28284;46.514;30.724;2023-08-17T12:38:50;100992.56;;;33.29
42673;BMP280;28284;46.514;30.724;2023-08-17T12:41:15;100994.31;;;33.32
42673;BMP280;28284;46.514;30.724;2023-08-17T12:43:41;100992.25;;;33.33
42673;BMP280;28284;46.514;30.724;2023-08-17T12:46:06;100989.66;;;33.35
42673;BMP280;28284;46.514;30.724;2023-08-17T12:48:31;100991.63;;;33.39
42673;BMP280;28284;46.514;30.724;2023-08-17T12:50:57;100981.66;;;33.38
42673;BMP280;28284;46.514;30.724;2023-08-17T12:53:22;100979.13;;;33.40
42673;BMP280;28284;46.514;30.724;2023-08-17T12:55:47;100977.72;;;33.47
42673;BMP280;28284;46.514;30.724;2023-08-17T12:58:14;100961.50;;;33.40
42673;BMP280;28284;46.514;30.724;2023-08-17T13:00:39;100972.25;;;33.54
42673;BMP280;28284;46.514;30.724;2023-08-17T13:03:04;100972.94;;;33.60
42673;BMP280;28284;46.514;30.724;2023-08-17T13:05:32;100978.44;;;33.66
42673;BMP280;28284;46.514;30.724;2023-08-17T13:07:57;100975.44;;;33.64
42673;BMP280;28284;46.514;30.724;2023-08-17T13:10:24;100975.75;;;33.60
42673;BMP280;28284;46.514;30.724;2023-08-17T13:12:50;100970.88;;;33.61
42673;BMP280;28284;46.514;30.724;2023-08-17T13:15:19;100969.59;;;33.62
42673;BMP280;28284;46.514;30.724;2023-08-17T13:17:49;100979.97;;;33.67
42673;BMP280;28284;46.514;30.724;2023-08-17T13:20:14;100971.53;;;33.67
42673;BMP280;28284;46.514;30.724;2023-08-17T13:22:40;100975.88;;;33.68
42673;BMP280;28284;46.514;30.724;2023-08-17T13:25:05;100966.66;;;33.67
42673;BMP280;28284;46.514;30.724;2023-08-17T13:27:33;100968.75;;;33.67
42673;BMP280;28284;46.514;30.724;2023-08-17T13:30:00;100970.03;;;33.66
42673;BMP280;28284;46.514;30.724;2023-08-17T13:32:26;100967.97;;;33.66
42673;BMP280;28284;46.514;30.724;2023-08-17T13:34:51;100966.13;;;33.69
42673;BMP280;28284;46.514;30.724;2023-08-17T13:37:18;100971.44;;;33.72
42673;BMP280;28284;46.514;30.724;2023-08-17T13:39:43;100977.59;;;33.71
42673;BMP280;28284;46.514;30.724;2023-08-17T13:42:09;100973.72;;;33.74
42673;BMP280;28284;46.514;30.724;2023-08-17T13:44:37;100965.06;;;33.72
42673;BMP280;28284;46.514;30.724;2023-08-17T13:47:03;100970.47;;;33.70
42673;BMP280;28284;46.514;30.724;2023-08-17T13:49:29;100970.56;;;33.64
42673;BMP280;28284;46.514;30.724;2023-08-17T13:51:57;100970.34;;;33.62
42673;BMP280;28284;46.514;30.724;2023-08-17T13:54:23;100971.94;;;33.58
42673;BMP280;28284;46.514;30.724;2023-08-17T13:56:48;100966.31;;;33.58